createdAt,value
2022-07-29T00:00:19.961Z,59.65
2022-07-29T00:03:22.674Z,60.22
2022-07-29T00:06:25.356Z,59.81
2022-07-29T00:09:28.308Z,60.52
2022-07-29T00:12:30.694Z,60.12
2022-07-29T00:15:34.995Z,60.37
2022-07-29T00:18:37.400Z,60.87
2022-07-29T00:21:40.212Z,60.75
2022-07-29T00:24:42.542Z,61.07
2022-07-29T00:27:46.736Z,60.93
2022-07-29T00:30:49.067Z,61.01
2022-07-29T00:33:51.683Z,60.96
2022-07-29T00:36:53.994Z,60.37
2022-07-29T00:39:56.602Z,60.62
2022-07-29T00:42:58.938Z,60.20
2022-07-29T00:46:02.562Z,60.31
2022-07-29T00:49:04.998Z,60.26
2022-07-29T00:52:08.651Z,60.44
2022-07-29T00:55:12.675Z,60.22
2022-07-29T00:58:16.055Z,60.53
2022-07-29T01:01:18.389Z,60.64
2022-07-29T01:04:21.537Z,60.73
2022-07-29T01:07:25.318Z,60.54
2022-07-29T01:10:28.488Z,60.70
2022-07-29T01:13:31.146Z,60.74
2022-07-29T01:16:37.467Z,60.60
2022-07-29T01:20:02.420Z,61.27
2022-07-29T01:23:08.152Z,61.38
2022-07-29T01:26:20.500Z,62.02
2022-07-29T01:29:30.999Z,62.47
2022-07-29T01:32:42.007Z,62.78
2022-07-29T01:35:45.504Z,62.63
2022-07-29T01:38:55.366Z,63.13
2022-07-29T01:42:06.988Z,63.83
2022-07-29T01:45:29.161Z,64.00
2022-07-29T01:48:35.929Z,64.41
2022-07-29T01:51:48.043Z,64.68
2022-07-29T01:54:53.363Z,65.08
2022-07-29T01:57:58.082Z,65.55
2022-07-29T02:01:00.911Z,65.93
2022-07-29T02:04:04.617Z,65.72
2022-07-29T02:07:08.053Z,65.88
2022-07-29T02:10:11.703Z,66.65
2022-07-29T02:13:14.564Z,66.59
2022-07-29T02:16:18.741Z,66.52
2022-07-29T02:19:23.382Z,67.09
2022-07-29T02:22:27.688Z,67.34
2022-07-29T02:25:38.066Z,67.26
2022-07-29T02:28:41.303Z,67.32
2022-07-29T02:31:45.344Z,67.59
2022-07-29T02:34:48.632Z,67.68
2022-07-29T02:38:11.570Z,67.58
2022-07-29T02:41:17.636Z,67.53
2022-07-29T02:44:22.411Z,68.24
2022-07-29T02:47:41.481Z,68.67
2022-07-29T02:50:52.999Z,68.85
2022-07-29T02:53:57.645Z,69.03
2022-07-29T02:57:01.780Z,69.41
2022-07-29T03:00:09.126Z,69.63
2022-07-29T03:03:15.983Z,69.92
2022-07-29T03:06:28.252Z,69.64
2022-07-29T03:09:42.733Z,69.94
2022-07-29T03:12:45.808Z,69.83
2022-07-29T03:15:48.530Z,70.01
2022-07-29T03:18:51.735Z,69.68
2022-07-29T03:21:56.818Z,69.60
2022-07-29T03:25:08.071Z,69.99
2022-07-29T03:28:10.514Z,69.97
2022-07-29T03:31:13.177Z,70.19
2022-07-29T03:34:15.942Z,69.96
2022-07-29T03:37:18.829Z,69.96
2022-07-29T03:40:23.292Z,69.81
2022-07-29T03:43:30.129Z,69.80
2022-07-29T03:46:33.961Z,69.89
2022-07-29T03:49:37.571Z,70.10
2022-07-29T03:52:39.962Z,70.20
2022-07-29T03:55:43.981Z,70.16
2022-07-29T03:58:46.719Z,69.89
2022-07-29T04:01:49.941Z,69.70
2022-07-29T04:04:52.742Z,69.23
2022-07-29T04:07:55.813Z,69.47
2022-07-29T04:11:01.137Z,69.85
2022-07-29T04:14:03.439Z,69.91
2022-07-29T04:17:06.032Z,70.06
2022-07-29T04:20:08.603Z,69.81
2022-07-29T04:23:11.148Z,69.15
2022-07-29T04:26:13.493Z,68.59
2022-07-29T04:29:16.189Z,69.40
2022-07-29T04:32:18.575Z,69.62
2022-07-29T04:35:21.244Z,69.46
2022-07-29T04:38:23.535Z,69.28
2022-07-29T04:41:33.163Z,68.21
2022-07-29T04:44:37.200Z,66.35
2022-07-29T04:47:42.306Z,65.70
2022-07-29T04:50:45.284Z,64.46
2022-07-29T04:53:47.812Z,64.15
2022-07-29T04:56:50.180Z,64.26
2022-07-29T04:59:52.749Z,63.64
2022-07-29T05:02:55.150Z,63.06
2022-07-29T05:05:57.853Z,62.37
2022-07-29T05:09:00.119Z,61.51
2022-07-29T05:12:02.863Z,59.59
2022-07-29T05:15:05.409Z,57.61
2022-07-29T05:18:08.114Z,57.16
2022-07-29T05:21:10.512Z,56.38
2022-07-29T05:24:13.270Z,55.92
2022-07-29T05:27:15.855Z,56.17
2022-07-29T05:30:18.815Z,55.69
2022-07-29T05:33:35.439Z,55.56
2022-07-29T05:36:39.375Z,55.67
2022-07-29T05:39:48.553Z,55.09
2022-07-29T05:42:51.950Z,52.58
2022-07-29T05:45:54.396Z,49.87
2022-07-29T05:48:57.280Z,48.70
2022-07-29T05:51:59.620Z,48.75
2022-07-29T05:55:05.264Z,47.81
2022-07-29T05:58:07.936Z,44.19
2022-07-29T06:01:10.544Z,41.99
2022-07-29T06:04:13.358Z,43.54
2022-07-29T06:07:17.139Z,44.86
2022-07-29T06:10:20.174Z,44.35
2022-07-29T06:13:26.231Z,45.38
2022-07-29T06:16:30.135Z,45.30
2022-07-29T06:19:34.826Z,46.48
2022-07-29T06:22:37.473Z,46.58
2022-07-29T06:25:40.897Z,46.89
2022-07-29T06:28:43.532Z,47.17
2022-07-29T06:31:45.869Z,47.09
2022-07-29T06:34:48.948Z,47.27
2022-07-29T06:37:51.942Z,46.00
2022-07-29T06:41:00.979Z,46.29
2022-07-29T06:44:03.682Z,45.71
2022-07-29T06:47:06.757Z,44.80
2022-07-29T06:50:12.760Z,43.38
2022-07-29T06:53:15.367Z,42.92
2022-07-29T06:56:17.760Z,42.29
2022-07-29T06:59:26.232Z,41.30
2022-07-29T07:02:33.284Z,38.03
2022-07-29T07:05:35.825Z,30.66
2022-07-29T07:08:38.161Z,26.25
2022-07-29T07:11:40.896Z,21.93
2022-07-29T07:14:43.397Z,20.99
2022-07-29T07:17:46.021Z,22.00
2022-07-29T07:20:48.640Z,20.25
2022-07-29T07:23:51.295Z,19.13
2022-07-29T07:26:53.726Z,17.43
2022-07-29T07:29:56.356Z,16.64
2022-07-29T07:32:58.713Z,16.43
2022-07-29T07:36:01.262Z,16.45
2022-07-29T07:39:04.482Z,15.78
2022-07-29T07:42:07.157Z,15.43
2022-07-29T07:45:15.909Z,15.74
2022-07-29T07:48:19.496Z,16.80
2022-07-29T07:51:21.781Z,16.51
2022-07-29T07:54:24.674Z,14.86
2022-07-29T07:57:26.947Z,13.92
2022-07-29T08:00:29.547Z,14.36
2022-07-29T08:03:32.159Z,14.08
2022-07-29T08:06:35.886Z,13.87
2022-07-29T08:09:38.491Z,12.78
2022-07-29T08:12:40.835Z,12.68
2022-07-29T08:15:44.146Z,13.45
2022-07-29T08:18:47.084Z,12.45
2022-07-29T08:21:50.236Z,12.77
2022-07-29T08:24:56.996Z,12.99
2022-07-29T08:27:59.988Z,13.27
2022-07-29T08:31:02.274Z,12.85
2022-07-29T08:34:05.335Z,13.70
2022-07-29T08:37:07.626Z,13.15
2022-07-29T08:40:10.617Z,13.41
2022-07-29T08:43:13.585Z,12.85
2022-07-29T08:46:18.117Z,13.00
2022-07-29T08:49:20.918Z,12.96
2022-07-29T08:52:26.061Z,13.84
2022-07-29T08:55:28.835Z,13.69
2022-07-29T08:58:37.015Z,12.92
2022-07-29T09:01:42.748Z,12.71
2022-07-29T09:04:47.907Z,11.87
2022-07-29T09:07:51.063Z,12.59
2022-07-29T09:10:54.427Z,13.40
2022-07-29T09:13:56.744Z,13.01
2022-07-29T09:16:59.647Z,12.47
2022-07-29T09:20:09.881Z,13.92
2022-07-29T09:23:12.780Z,13.75
2022-07-29T09:26:29.163Z,15.03
2022-07-29T09:29:36.154Z,18.49
2022-07-29T09:32:57.636Z,20.56
2022-07-29T09:36:01.935Z,22.50
2022-07-29T09:39:04.805Z,23.06
2022-07-29T09:42:07.730Z,24.07
2022-07-29T09:45:11.407Z,23.77
2022-07-29T09:48:15.234Z,23.81
2022-07-29T09:51:25.480Z,24.63
2022-07-29T09:54:35.481Z,24.28
2022-07-29T09:57:37.856Z,24.51
2022-07-29T10:00:43.333Z,24.44
2022-07-29T10:03:53.182Z,23.86
2022-07-29T10:07:04.347Z,23.97
2022-07-29T10:10:08.463Z,24.15
2022-07-29T10:13:16.080Z,24.06
2022-07-29T10:16:19.316Z,23.43
2022-07-29T10:19:21.780Z,22.93
2022-07-29T10:22:51.466Z,23.19
2022-07-29T10:25:46.996Z,23.25
2022-07-29T10:28:49.648Z,22.70
2022-07-29T10:32:10.985Z,22.97
2022-07-29T10:35:19.024Z,22.92
2022-07-29T10:38:24.749Z,22.61
2022-07-29T10:41:54.173Z,22.43
2022-07-29T10:44:56.740Z,22.39
2022-07-29T10:48:07.968Z,23.04
2022-07-29T10:51:10.733Z,23.08
2022-07-29T10:54:16.425Z,22.11
2022-07-29T10:57:20.277Z,21.71
2022-07-29T11:00:28.018Z,21.66
2022-07-29T11:03:50.440Z,23.01
2022-07-29T11:06:59.667Z,23.38
2022-07-29T11:10:15.353Z,24.28
2022-07-29T11:13:41.360Z,25.36
2022-07-29T11:17:05.987Z,25.44
2022-07-29T11:20:27.168Z,25.26
2022-07-29T11:23:33.388Z,25.04
2022-07-29T11:26:37.077Z,24.19
2022-07-29T11:29:43.177Z,23.74
2022-07-29T11:32:48.845Z,24.11
2022-07-29T11:36:17.812Z,24.06
2022-07-29T11:39:36.273Z,23.71
2022-07-29T11:42:41.999Z,23.79
2022-07-29T11:45:48.047Z,24.01
2022-07-29T11:48:50.509Z,23.37
2022-07-29T11:51:58.881Z,23.51
2022-07-29T11:55:09.599Z,22.48
2022-07-29T11:58:13.159Z,22.63
2022-07-29T12:01:18.145Z,22.02
2022-07-29T12:04:20.859Z,22.02
2022-07-29T12:07:34.920Z,22.21
2022-07-29T12:10:38.192Z,22.42
2022-07-29T12:13:40.771Z,21.21
2022-07-29T12:16:43.414Z,21.39
2022-07-29T12:19:46.472Z,21.55
2022-07-29T12:22:50.281Z,21.21
2022-07-29T12:25:53.116Z,20.94
2022-07-29T12:28:56.820Z,21.11
2022-07-29T12:31:59.729Z,21.26
2022-07-29T12:35:06.562Z,21.67
2022-07-29T12:38:10.552Z,21.12
2022-07-29T12:41:13.932Z,20.96
2022-07-29T12:44:16.399Z,21.67
2022-07-29T12:47:19.646Z,21.29
2022-07-29T12:50:26.284Z,21.87
2022-07-29T12:53:29.394Z,21.64
2022-07-29T12:56:47.069Z,21.66
2022-07-29T13:00:11.141Z,21.62
2022-07-29T13:03:13.744Z,21.86
2022-07-29T13:06:35.390Z,21.56
2022-07-29T13:09:46.851Z,21.14
2022-07-29T13:13:02.129Z,21.51
2022-07-29T13:16:08.678Z,21.79
2022-07-29T13:19:12.719Z,21.65
2022-07-29T13:22:16.335Z,21.99
2022-07-29T13:25:33.146Z,22.09
2022-07-29T13:28:35.684Z,21.73
2022-07-29T13:31:38.470Z,21.97
2022-07-29T13:34:41.736Z,21.48
2022-07-29T13:37:44.376Z,22.04
2022-07-29T13:40:46.779Z,21.91
2022-07-29T13:43:50.082Z,21.45
2022-07-29T13:46:52.635Z,21.87
2022-07-29T13:49:56.135Z,22.05
2022-07-29T13:53:01.329Z,22.08
2022-07-29T13:56:06.113Z,22.92
2022-07-29T13:59:08.748Z,23.55
2022-07-29T14:02:11.864Z,23.88
2022-07-29T14:05:18.635Z,23.66
2022-07-29T14:08:21.048Z,23.31
2022-07-29T14:11:23.819Z,23.50
2022-07-29T14:14:26.201Z,23.29
2022-07-29T14:17:29.687Z,24.08
2022-07-29T14:20:32.655Z,23.94
2022-07-29T14:23:36.151Z,24.20
2022-07-29T14:26:38.819Z,23.69
2022-07-29T14:29:41.550Z,23.79
2022-07-29T14:32:43.947Z,23.86
2022-07-29T14:35:46.588Z,23.94
2022-07-29T14:38:48.983Z,23.64
2022-07-29T14:41:52.119Z,24.01
2022-07-29T14:44:54.908Z,23.83
2022-07-29T14:47:57.646Z,23.62
2022-07-29T14:51:04.555Z,23.13
2022-07-29T14:54:07.626Z,23.12
2022-07-29T14:57:09.902Z,23.58
2022-07-29T15:00:13.576Z,23.39
2022-07-29T15:03:24.224Z,23.96
2022-07-29T15:06:27.459Z,23.34
2022-07-29T15:09:29.828Z,23.34
2022-07-29T15:12:32.798Z,23.51
2022-07-29T15:15:35.145Z,24.26
2022-07-29T15:18:39.271Z,23.85
2022-07-29T15:21:48.872Z,24.30
2022-07-29T15:24:51.725Z,24.18
2022-07-29T15:27:56.677Z,24.03
2022-07-29T15:31:03.288Z,24.06
2022-07-29T15:34:06.529Z,24.13
2022-07-29T15:37:09.248Z,24.28
2022-07-29T15:40:11.802Z,24.49
2022-07-29T15:43:14.448Z,24.26
2022-07-29T15:46:36.442Z,24.19
2022-07-29T15:49:48.336Z,24.72
2022-07-29T15:52:51.869Z,24.78
2022-07-29T15:55:54.397Z,24.62
2022-07-29T15:58:56.831Z,24.83
2022-07-29T16:02:00.593Z,25.06
2022-07-29T16:05:03.191Z,25.17
2022-07-29T16:08:05.683Z,25.11
2022-07-29T16:11:08.284Z,26.03
2022-07-29T16:14:11.723Z,25.87
2022-07-29T16:17:15.213Z,26.38
2022-07-29T16:20:17.695Z,26.20
2022-07-29T16:23:20.334Z,26.12
2022-07-29T16:26:22.691Z,26.90
2022-07-29T16:29:25.556Z,26.55
2022-07-29T16:32:27.800Z,26.28
2022-07-29T16:35:39.744Z,26.90
2022-07-29T16:38:47.305Z,27.40
2022-07-29T16:41:50.164Z,27.05
2022-07-29T16:44:52.495Z,26.69
2022-07-29T16:48:00.238Z,26.65
2022-07-29T16:51:03.368Z,27.01
2022-07-29T16:54:06.011Z,27.47
2022-07-29T16:57:08.408Z,27.29
2022-07-29T17:00:11.596Z,27.85
2022-07-29T17:03:13.897Z,28.09
2022-07-29T17:06:16.445Z,28.24
2022-07-29T17:09:18.794Z,28.72
2022-07-29T17:12:21.473Z,29.48
2022-07-29T17:15:23.830Z,30.01
2022-07-29T17:18:26.780Z,30.69
2022-07-29T17:21:29.211Z,30.75
2022-07-29T17:24:31.769Z,30.87
2022-07-29T17:27:34.649Z,31.34
2022-07-29T17:30:37.267Z,29.78
2022-07-29T17:33:43.568Z,30.78
2022-07-29T17:36:46.259Z,31.07
2022-07-29T17:39:48.874Z,32.00
2022-07-29T17:42:51.451Z,31.00
2022-07-29T17:45:56.866Z,31.44
2022-07-29T17:49:02.261Z,30.89
2022-07-29T17:52:04.837Z,31.80
2022-07-29T17:55:07.821Z,32.54
2022-07-29T17:58:10.433Z,32.74
2022-07-29T18:01:13.585Z,32.85
2022-07-29T18:04:20.158Z,33.67
2022-07-29T18:07:22.528Z,34.42
2022-07-29T18:10:25.493Z,34.48
2022-07-29T18:13:27.919Z,34.59
2022-07-29T18:16:30.610Z,35.96
2022-07-29T18:19:33.054Z,36.35
2022-07-29T18:22:35.648Z,37.64
2022-07-29T18:25:39.025Z,36.89
2022-07-29T18:28:41.669Z,36.85
2022-07-29T18:31:44.024Z,38.59
2022-07-29T18:34:46.889Z,38.93
2022-07-29T18:38:00.871Z,37.75
2022-07-29T18:41:05.531Z,38.95
2022-07-29T18:44:09.639Z,41.04
2022-07-29T18:47:12.794Z,37.34
2022-07-29T18:50:16.604Z,36.97
2022-07-29T18:53:19.438Z,36.98
2022-07-29T18:56:21.734Z,37.04
2022-07-29T18:59:24.396Z,37.22
2022-07-29T19:02:27.922Z,37.52
2022-07-29T19:05:30.690Z,37.98
2022-07-29T19:08:33.377Z,38.22
2022-07-29T19:11:36.837Z,38.34
2022-07-29T19:14:39.461Z,38.77
2022-07-29T19:17:41.996Z,39.01
2022-07-29T19:20:44.520Z,39.10
2022-07-29T19:24:06.269Z,39.40
2022-07-29T19:27:09.761Z,39.51
2022-07-29T19:30:12.720Z,39.80
2022-07-29T19:33:17.537Z,40.16
2022-07-29T19:36:20.622Z,40.43
2022-07-29T19:39:35.030Z,40.96
2022-07-29T19:42:38.273Z,41.24
2022-07-29T19:45:40.899Z,41.61
2022-07-29T19:48:43.733Z,42.11
2022-07-29T19:51:46.012Z,42.37
2022-07-29T19:54:48.635Z,42.61
2022-07-29T19:57:52.652Z,43.15
2022-07-29T20:00:55.416Z,43.60
2022-07-29T20:03:58.209Z,43.96
2022-07-29T20:07:01.876Z,44.65
2022-07-29T20:10:08.445Z,44.98
2022-07-29T20:13:10.919Z,45.69
2022-07-29T20:16:13.575Z,46.28
2022-07-29T20:19:16.581Z,46.49
2022-07-29T20:22:21.191Z,46.89
2022-07-29T20:25:23.788Z,47.52
2022-07-29T20:28:26.438Z,47.95
2022-07-29T20:31:30.521Z,48.40
2022-07-29T20:34:33.304Z,48.87
2022-07-29T20:37:52.175Z,49.00
2022-07-29T20:40:58.867Z,49.00
2022-07-29T20:44:01.538Z,49.31
2022-07-29T20:47:04.196Z,49.38
2022-07-29T20:50:06.743Z,49.38
2022-07-29T20:53:09.738Z,49.25
2022-07-29T20:56:12.583Z,49.40
2022-07-29T20:59:15.239Z,49.87
2022-07-29T21:02:17.586Z,50.21
2022-07-29T21:05:20.173Z,50.69
2022-07-29T21:08:22.546Z,51.14
2022-07-29T21:11:44.670Z,51.28
2022-07-29T21:14:51.730Z,51.87
2022-07-29T21:18:00.674Z,52.38
2022-07-29T21:21:04.150Z,52.95
2022-07-29T21:24:07.496Z,53.31
2022-07-29T21:27:33.151Z,53.72
2022-07-29T21:30:36.555Z,54.38
2022-07-29T21:33:40.427Z,55.06
2022-07-29T21:36:48.339Z,55.63
2022-07-29T21:39:50.992Z,56.13
2022-07-29T21:42:53.610Z,56.65
2022-07-29T21:45:56.700Z,57.20
2022-07-29T21:48:59.451Z,57.42
2022-07-29T21:52:01.824Z,57.51
2022-07-29T21:55:04.588Z,57.80
2022-07-29T21:58:07.563Z,58.02
2022-07-29T22:01:10.185Z,58.24
2022-07-29T22:04:12.932Z,58.52
2022-07-29T22:07:15.263Z,58.78
2022-07-29T22:10:17.816Z,59.29
2022-07-29T22:13:20.076Z,59.59
2022-07-29T22:16:22.707Z,60.50
2022-07-29T22:19:27.357Z,60.90
2022-07-29T22:22:30.308Z,61.57
2022-07-29T22:25:32.676Z,62.16
2022-07-29T22:28:35.266Z,62.52
2022-07-29T22:31:37.550Z,62.99
2022-07-29T22:34:40.107Z,63.34
2022-07-29T22:37:42.550Z,64.05
2022-07-29T22:40:45.310Z,64.41
2022-07-29T22:43:47.631Z,65.04
2022-07-29T22:46:50.182Z,65.37
2022-07-29T22:49:52.583Z,65.69
2022-07-29T22:52:55.184Z,65.68
2022-07-29T22:55:57.577Z,66.25
2022-07-29T22:59:00.165Z,66.34
2022-07-29T23:02:02.459Z,66.95
2022-07-29T23:05:05.141Z,66.74
2022-07-29T23:08:09.276Z,66.94
2022-07-29T23:11:11.910Z,67.34
2022-07-29T23:14:14.224Z,67.83
2022-07-29T23:17:17.114Z,68.27
2022-07-29T23:20:21.715Z,68.51
2022-07-29T23:23:24.413Z,68.55
2022-07-29T23:26:26.785Z,69.13
2022-07-29T23:29:30.993Z,69.11
2022-07-29T23:32:36.159Z,69.38
2022-07-29T23:35:38.704Z,69.56
2022-07-29T23:38:41.199Z,69.79
2022-07-29T23:41:43.761Z,70.04
2022-07-29T23:44:46.087Z,70.55
2022-07-29T23:47:48.663Z,70.57
2022-07-29T23:50:50.947Z,70.82
2022-07-29T23:53:54.413Z,70.94
2022-07-29T23:56:57.922Z,71.47
